Time;durP1;ratioP1;P1;durP2;ratioP2;P2;SDS_P1;SDS_P2;PMS_P1;PMS_P2;Temp;Humidity;BMP_temperature;BMP_pressure;BME280_temperature;BME280_humidity;BME280_pressure;Samples;Min_cycle;Max_cycle;Signal;HPM_P1;HPM_P2
2021/12/14 00:01:00;;;;;;;68.57;19.87;;;7.20;99.90;;;;;;5029170;28;20194;-70
2021/12/14 00:03:30;;;;;;;77.63;20.13;;;7.10;99.90;;;;;;5029331;28;20300;-70
2021/12/14 00:05:58;;;;;;;73.60;22.30;;;7.10;99.90;;;;;;5027885;28;20197;-70
2021/12/14 00:08:31;;;;;;;53.27;21.30;;;7.10;99.90;;;;;;5029070;28;20228;-70
2021/12/14 00:13:54;;;;;;;62.83;19.37;;;7.10;99.90;;;;;;5028535;28;20200;-70
2021/12/14 00:16:41;;;;;;;52.33;17.90;;;7.10;99.90;;;;;;5029080;28;20197;-70
2021/12/14 00:19:08;;;;;;;54.27;20.13;;;7.10;99.90;;;;;;5029124;28;20221;-70
2021/12/14 00:21:35;;;;;;;54.33;19.67;;;7.10;99.90;;;;;;5028952;28;20255;-70
2021/12/14 00:24:09;;;;;;;72.03;19.67;;;7.10;99.90;;;;;;5028694;28;20618;-70
2021/12/14 00:26:40;;;;;;;65.10;20.23;;;7.10;99.90;;;;;;5028976;28;20228;-71
2021/12/14 00:29:08;;;;;;;69.27;20.47;;;7.10;99.90;;;;;;5028936;28;20201;-70
2021/12/14 00:31:37;;;;;;;60.70;20.07;;;7.10;99.90;;;;;;5028838;28;20208;-71
2021/12/14 00:34:06;;;;;;;61.23;20.27;;;7.10;99.90;;;;;;5028832;28;20247;-71
2021/12/14 00:36:35;;;;;;;51.83;19.77;;;7.10;99.90;;;;;;5028782;28;20216;-71
2021/12/14 00:39:06;;;;;;;46.87;20.00;;;7.00;99.90;;;;;;5028333;28;20240;-70
2021/12/14 00:41:35;;;;;;;64.47;20.03;;;7.00;99.90;;;;;;5028662;28;20199;-70
2021/12/14 00:44:03;;;;;;;70.60;20.20;;;7.00;99.90;;;;;;5028250;28;20643;-70
2021/12/14 00:46:30;;;;;;;48.53;19.90;;;7.00;99.90;;;;;;5028683;28;20290;-70
2021/12/14 00:48:57;;;;;;;71.07;19.33;;;7.00;99.90;;;;;;5028493;28;20548;-70
2021/12/14 00:51:27;;;;;;;69.33;20.03;;;7.00;99.90;;;;;;5028249;28;20266;-70
2021/12/14 00:53:58;;;;;;;57.67;19.87;;;7.10;99.90;;;;;;5027918;28;20646;-70
2021/12/14 00:56:26;;;;;;;64.70;20.57;;;7.00;99.90;;;;;;5028038;28;20699;-70
2021/12/14 00:58:53;;;;;;;59.60;21.27;;;7.00;99.90;;;;;;5028258;28;20224;-70
2021/12/14 01:01:51;;;;;;;49.17;20.37;;;7.00;99.90;;;;;;5027307;28;20749;-70
2021/12/14 01:04:22;;;;;;;62.63;19.63;;;7.00;99.90;;;;;;5028316;28;20610;-70
2021/12/14 01:06:49;;;;;;;48.53;21.47;;;7.00;99.90;;;;;;5028529;28;20204;-70
2021/12/14 01:09:21;;;;;;;52.50;20.93;;;7.00;99.90;;;;;;5028415;28;20208;-70
2021/12/14 01:11:50;;;;;;;61.00;20.10;;;7.00;99.90;;;;;;5028528;28;20197;-71
2021/12/14 01:14:30;;;;;;;58.93;21.17;;;7.00;99.90;;;;;;5028128;28;20292;-70
2021/12/14 01:17:10;;;;;;;55.90;19.63;;;7.00;99.90;;;;;;5028013;28;20228;-70
2021/12/14 01:19:38;;;;;;;60.23;20.00;;;7.00;99.90;;;;;;5028042;28;20240;-70
2021/12/14 01:22:19;;;;;;;59.27;20.50;;;7.00;99.90;;;;;;5028149;28;20287;-70
2021/12/14 01:25:02;;;;;;;53.73;20.37;;;6.90;99.90;;;;;;5028169;28;20204;-70
2021/12/14 01:27:36;;;;;;;60.00;20.67;;;6.90;99.90;;;;;;5027988;28;20620;-71
2021/12/14 01:30:08;;;;;;;43.30;20.13;;;6.90;99.90;;;;;;5028372;28;20205;-71
2021/12/14 01:32:39;;;;;;;46.17;21.27;;;6.90;99.90;;;;;;5028252;28;20229;-71
2021/12/14 01:35:12;;;;;;;51.70;20.43;;;6.90;99.90;;;;;;5028246;28;20193;-70
2021/12/14 01:37:45;;;;;;;45.73;20.03;;;6.90;99.90;;;;;;5027918;28;20189;-71
2021/12/14 01:40:29;;;;;;;60.17;20.13;;;6.90;99.90;;;;;;5028019;28;20225;-71
2021/12/14 01:42:58;;;;;;;61.63;20.43;;;6.90;99.90;;;;;;5027910;28;20259;-70
2021/12/14 01:45:26;;;;;;;49.97;20.07;;;6.90;99.90;;;;;;5027953;28;20255;-70
2021/12/14 01:47:57;;;;;;;53.13;20.27;;;6.90;99.90;;;;;;5027951;28;20213;-71
2021/12/14 01:50:27;;;;;;;50.93;18.13;;;6.90;99.90;;;;;;5028044;28;20205;-70
2021/12/14 01:52:55;;;;;;;46.13;19.83;;;6.90;99.90;;;;;;5027646;28;20240;-71
2021/12/14 01:55:25;;;;;;;50.93;20.63;;;6.90;99.90;;;;;;5027431;28;20761;-70
2021/12/14 01:57:55;;;;;;;66.50;19.27;;;6.90;99.90;;;;;;5027579;28;20212;-70
2021/12/14 02:00:32;;;;;;;49.80;19.60;;;6.90;99.90;;;;;;5027829;28;20228;-70
2021/12/14 02:03:00;;;;;;;49.67;20.23;;;6.90;99.90;;;;;;5027773;28;20256;-70
2021/12/14 02:05:30;;;;;;;60.93;19.87;;;6.90;99.90;;;;;;5027524;28;20926;-70
2021/12/14 02:07:59;;;;;;;54.43;19.27;;;7.00;99.90;;;;;;5027713;28;20193;-70
2021/12/14 02:10:29;;;;;;;47.13;18.23;;;7.00;99.90;;;;;;5027463;28;20586;-70
2021/12/14 02:12:56;;;;;;;43.97;18.97;;;7.00;99.90;;;;;;5030755;28;20262;-71
2021/12/14 02:15:27;;;;;;;33.93;17.60;;;6.90;99.90;;;;;;5030976;28;20786;-71
2021/12/14 02:17:56;;;;;;;33.03;16.60;;;6.90;99.90;;;;;;5031703;28;20615;-71
2021/12/14 02:20:37;;;;;;;42.83;15.80;;;6.90;99.90;;;;;;5030984;28;21056;-70
2021/12/14 02:23:08;;;;;;;48.30;16.90;;;7.00;99.90;;;;;;5031314;28;20557;-70
2021/12/14 02:25:35;;;;;;;41.80;17.23;;;7.00;99.90;;;;;;5031378;28;20209;-70
2021/12/14 02:28:05;;;;;;;35.13;16.67;;;7.00;99.90;;;;;;5031082;28;20212;-70
2021/12/14 02:30:32;;;;;;;33.03;15.40;;;6.90;99.90;;;;;;5031310;28;20613;-70
2021/12/14 02:32:59;;;;;;;31.47;16.30;;;6.80;99.90;;;;;;5030986;28;20259;-71
2021/12/14 02:35:28;;;;;;;33.03;15.33;;;6.80;99.90;;;;;;5030837;28;20671;-71
2021/12/14 02:37:58;;;;;;;39.50;16.97;;;6.90;99.90;;;;;;5030725;28;21024;-71
2021/12/14 02:40:53;;;;;;;31.07;14.60;;;6.90;99.90;;;;;;5031144;28;20309;-71
2021/12/14 02:43:20;;;;;;;30.13;15.77;;;6.90;99.90;;;;;;5030580;28;20205;-71
2021/12/14 02:45:47;;;;;;;32.97;15.10;;;6.90;99.90;;;;;;5030699;28;20205;-70
2021/12/14 02:48:14;;;;;;;32.50;15.17;;;6.90;99.90;;;;;;5030633;28;20695;-71
2021/12/14 02:50:43;;;;;;;29.20;14.97;;;6.90;99.90;;;;;;5030505;28;20205;-70
2021/12/14 02:53:11;;;;;;;28.60;15.00;;;6.90;99.90;;;;;;5030660;28;20241;-71
2021/12/14 02:55:40;;;;;;;25.83;12.97;;;7.00;99.90;;;;;;5030583;28;20646;-71
2021/12/14 02:58:08;;;;;;;31.50;13.47;;;7.00;99.90;;;;;;5030729;28;20237;-71
2021/12/14 03:00:39;;;;;;;30.87;14.60;;;7.00;99.90;;;;;;5030681;28;20327;-71
2021/12/14 03:03:06;;;;;;;29.83;14.60;;;6.90;99.90;;;;;;5030814;28;20201;-71
2021/12/14 03:05:38;;;;;;;26.23;13.50;;;6.90;99.90;;;;;;5030438;28;20216;-71
2021/12/14 03:08:08;;;;;;;25.10;13.03;;;6.80;99.90;;;;;;5030669;28;20271;-71
2021/12/14 03:10:53;;;;;;;23.53;13.10;;;6.90;99.90;;;;;;5030702;28;20201;-71
2021/12/14 03:13:21;;;;;;;25.93;13.13;;;6.90;99.90;;;;;;5030500;28;20251;-71
2021/12/14 03:15:52;;;;;;;25.37;13.57;;;6.90;99.90;;;;;;5030181;28;20221;-71
2021/12/14 03:18:25;;;;;;;28.63;14.23;;;6.80;99.90;;;;;;5030300;28;20208;-71
2021/12/14 03:20:55;;;;;;;26.07;13.40;;;6.80;99.90;;;;;;5030239;28;20225;-71
2021/12/14 03:23:26;;;;;;;30.07;12.57;;;6.80;99.90;;;;;;5029492;28;20220;-71
2021/12/14 03:25:56;;;;;;;22.23;12.50;;;6.80;99.90;;;;;;5029901;28;20197;-71
2021/12/14 03:28:26;;;;;;;20.13;11.63;;;6.80;99.90;;;;;;5030275;28;20193;-71
2021/12/14 03:31:04;;;;;;;22.67;11.60;;;6.90;99.90;;;;;;5030089;28;20279;-71
2021/12/14 03:33:34;;;;;;;27.43;12.83;;;6.90;99.90;;;;;;5029921;28;20671;-71
2021/12/14 03:36:04;;;;;;;21.37;12.03;;;6.90;99.90;;;;;;5030064;28;20208;-71
2021/12/14 03:38:34;;;;;;;25.70;12.67;;;6.90;99.90;;;;;;5030073;28;20252;-71
2021/12/14 03:41:21;;;;;;;23.23;13.00;;;7.00;99.90;;;;;;5029795;28;20236;-71
2021/12/14 03:43:53;;;;;;;25.33;13.27;;;7.00;99.90;;;;;;5029894;28;20193;-71
2021/12/14 03:46:27;;;;;;;24.43;13.67;;;6.90;99.90;;;;;;5029977;28;20201;-71
2021/12/14 03:48:55;;;;;;;24.80;12.47;;;6.90;99.90;;;;;;5029843;28;20200;-71
2021/12/14 03:51:23;;;;;;;24.83;13.13;;;6.90;99.90;;;;;;5029711;28;20534;-71
2021/12/14 03:53:51;;;;;;;24.33;13.43;;;7.00;99.90;;;;;;5029073;28;20267;-70
2021/12/14 03:56:26;;;;;;;25.00;12.60;;;6.90;99.90;;;;;;5029700;28;20208;-71
2021/12/14 03:58:54;;;;;;;25.97;13.00;;;6.90;99.90;;;;;;5029311;28;20212;-71
2021/12/14 04:01:37;;;;;;;24.37;12.50;;;7.00;99.90;;;;;;5029594;28;20233;-71
2021/12/14 04:04:18;;;;;;;27.13;13.27;;;7.00;99.90;;;;;;5029435;28;20196;-71
2021/12/14 04:06:46;;;;;;;27.23;12.73;;;7.00;99.90;;;;;;5029444;28;20681;-71
2021/12/14 04:09:16;;;;;;;23.57;12.60;;;7.00;99.90;;;;;;5029511;28;20215;-71
2021/12/14 04:11:45;;;;;;;22.00;12.27;;;6.90;99.90;;;;;;5029362;28;20220;-71
2021/12/14 04:14:12;;;;;;;23.10;12.40;;;7.00;99.90;;;;;;5029426;28;20235;-71
2021/12/14 04:16:46;;;;;;;22.83;11.80;;;7.00;99.90;;;;;;5029237;28;20254;-71
2021/12/14 04:19:20;;;;;;;25.40;12.97;;;7.00;99.90;;;;;;5029206;28;20228;-71
2021/12/14 04:21:46;;;;;;;28.40;12.67;;;6.90;99.90;;;;;;5029092;28;20256;-71
2021/12/14 04:24:18;;;;;;;24.73;12.50;;;6.90;99.90;;;;;;5029144;28;20209;-71
2021/12/14 04:26:46;;;;;;;27.80;13.27;;;6.90;99.90;;;;;;5028717;28;20644;-71
2021/12/14 04:29:14;;;;;;;25.50;11.73;;;7.00;99.90;;;;;;5028770;28;20660;-70
2021/12/14 04:31:44;;;;;;;23.93;12.20;;;7.00;99.90;;;;;;5028995;28;20243;-70
2021/12/14 04:34:11;;;;;;;24.00;12.20;;;7.10;99.90;;;;;;5028492;28;20679;-70
2021/12/14 04:36:39;;;;;;;22.03;12.40;;;7.10;99.90;;;;;;5028599;28;20219;-70
2021/12/14 04:39:30;;;;;;;21.93;11.97;;;7.10;99.90;;;;;;5028848;28;20217;-70
2021/12/14 04:53:17;;;;;;;18.87;10.40;;;7.10;99.90;;;;;;5027905;28;20290;-70
2021/12/14 04:55:46;;;;;;;15.17;10.13;;;7.10;99.90;;;;;;5028728;28;20200;-70
2021/12/14 04:58:15;;;;;;;18.20;10.47;;;7.10;99.90;;;;;;5028295;28;20750;-70
2021/12/14 05:00:45;;;;;;;17.43;11.07;;;7.10;99.90;;;;;;5028336;28;20283;-70
2021/12/14 05:03:17;;;;;;;16.20;10.13;;;7.10;99.90;;;;;;5028606;28;20209;-71
2021/12/14 05:05:48;;;;;;;17.83;10.40;;;7.20;99.90;;;;;;5028584;28;20194;-71
2021/12/14 05:11:05;;;;;;;17.57;9.67;;;7.10;99.90;;;;;;5028020;28;20196;-70
2021/12/14 05:13:36;;;;;;;15.87;10.43;;;7.10;99.90;;;;;;5028348;28;20251;-70
2021/12/14 05:16:04;;;;;;;14.67;10.03;;;7.20;99.90;;;;;;5028114;28;20263;-70
2021/12/14 05:18:31;;;;;;;14.83;9.43;;;7.20;99.90;;;;;;5028100;28;20311;-71
2021/12/14 05:20:59;;;;;;;13.03;9.20;;;7.20;99.90;;;;;;5027987;28;20229;-71
2021/12/14 05:23:28;;;;;;;16.73;10.20;;;7.20;99.90;;;;;;5028302;28;20299;-71
2021/12/14 05:25:57;;;;;;;11.90;8.97;;;7.20;99.90;;;;;;5028150;28;20209;-71
2021/12/14 05:28:25;;;;;;;13.60;9.47;;;7.20;99.90;;;;;;5027885;28;20208;-71
2021/12/14 05:30:57;;;;;;;10.87;8.60;;;7.20;99.90;;;;;;5027736;28;20250;-71
2021/12/14 05:33:26;;;;;;;14.80;9.50;;;7.20;99.90;;;;;;5028394;28;20223;-71
2021/12/14 05:35:55;;;;;;;13.00;9.03;;;7.20;99.90;;;;;;5028086;28;20258;-71
2021/12/14 05:38:39;;;;;;;14.03;8.87;;;7.10;99.90;;;;;;5028042;28;20232;-71
2021/12/14 05:43:48;;;;;;;14.10;9.30;;;7.10;99.90;;;;;;5027737;28;20351;-70
2021/12/14 05:46:23;;;;;;;13.03;8.83;;;7.10;99.90;;;;;;5028446;28;20209;-70
2021/12/14 05:48:57;;;;;;;12.17;9.07;;;7.10;99.90;;;;;;5032093;28;20258;-70
2021/12/14 05:51:24;;;;;;;15.10;9.53;;;7.10;99.90;;;;;;5032203;28;20269;-70
2021/12/14 05:53:51;;;;;;;12.00;9.40;;;7.10;99.90;;;;;;5031496;28;20287;-70
2021/12/14 05:56:26;;;;;;;12.07;8.87;;;7.10;99.90;;;;;;5032222;28;20263;-72
2021/12/14 05:58:58;;;;;;;15.30;9.13;;;7.10;99.90;;;;;;5031788;28;20208;-71
2021/12/14 06:01:30;;;;;;;14.70;9.27;;;7.10;99.90;;;;;;5031981;28;20220;-71
2021/12/14 06:03:59;;;;;;;15.33;9.70;;;7.00;99.90;;;;;;5031948;28;20200;-71
2021/12/14 06:06:31;;;;;;;12.30;8.67;;;7.00;99.90;;;;;;5031883;28;20259;-72
2021/12/14 06:09:05;;;;;;;16.67;10.33;;;7.00;99.90;;;;;;5031759;28;20363;-72
2021/12/14 06:11:32;;;;;;;14.30;9.30;;;7.00;99.90;;;;;;5031421;28;20193;-72
2021/12/14 06:13:59;;;;;;;15.27;9.33;;;7.00;99.90;;;;;;5031542;28;20295;-72
2021/12/14 06:16:29;;;;;;;14.53;9.20;;;7.00;99.90;;;;;;5031182;28;20734;-72
2021/12/14 06:19:13;;;;;;;12.60;9.00;;;7.00;99.90;;;;;;5031494;28;20229;-71
2021/12/14 06:21:40;;;;;;;11.67;8.90;;;7.00;99.90;;;;;;5031321;28;20702;-71
2021/12/14 06:24:09;;;;;;;13.93;9.20;;;7.10;99.90;;;;;;5031265;28;20233;-71
2021/12/14 06:26:38;;;;;;;13.03;9.17;;;7.10;99.90;;;;;;5031402;28;20209;-71
2021/12/14 06:29:07;;;;;;;13.43;9.53;;;7.10;99.90;;;;;;5031305;28;20204;-71
2021/12/14 06:31:35;;;;;;;12.73;8.80;;;7.00;99.90;;;;;;5031349;28;20220;-71
2021/12/14 06:34:21;;;;;;;12.13;8.83;;;7.00;99.90;;;;;;5031036;28;20278;-71
2021/12/14 06:37:54;;;;;;;11.47;9.10;;;7.00;99.90;;;;;;5030761;28;20715;-71
2021/12/14 06:40:26;;;;;;;11.37;8.67;;;7.00;99.90;;;;;;5019040;28;20633;-71
2021/12/14 06:42:56;;;;;;;11.80;8.53;;;7.00;99.90;;;;;;5030900;28;20197;-71
2021/12/14 06:45:26;;;;;;;12.87;8.47;;;7.00;99.90;;;;;;5031025;28;20205;-71
2021/12/14 06:48:00;;;;;;;12.33;9.33;;;7.00;99.90;;;;;;5030948;28;20274;-71
2021/12/14 06:50:30;;;;;;;12.30;9.43;;;7.00;99.90;;;;;;5030975;28;20295;-71
2021/12/14 06:53:00;;;;;;;11.97;9.27;;;7.00;99.90;;;;;;5030374;28;20240;-71
2021/12/14 06:55:28;;;;;;;10.77;8.50;;;7.00;99.90;;;;;;5030848;28;20263;-71
2021/12/14 06:58:10;;;;;;;10.53;8.20;;;7.00;99.90;;;;;;5030404;28;20232;-71
2021/12/14 07:00:42;;;;;;;9.67;8.03;;;6.90;99.90;;;;;;5030711;28;20679;-71
2021/12/14 07:03:10;;;;;;;11.33;8.60;;;6.90;99.90;;;;;;5030406;28;20707;-71
2021/12/14 07:05:38;;;;;;;9.50;7.80;;;6.90;99.90;;;;;;5030699;28;20216;-71
2021/12/14 07:08:11;;;;;;;10.27;8.83;;;6.90;99.90;;;;;;5030374;28;20263;-71
2021/12/14 07:10:40;;;;;;;10.70;8.97;;;6.90;99.90;;;;;;5030446;28;20201;-71
2021/12/14 07:13:12;;;;;;;11.73;8.90;;;7.00;99.90;;;;;;5030146;28;20248;-71
2021/12/14 07:15:39;;;;;;;10.43;8.37;;;7.00;99.90;;;;;;5029941;28;20747;-71
2021/12/14 07:18:07;;;;;;;11.20;8.27;;;7.00;99.90;;;;;;5029841;28;20704;-71
2021/12/14 07:20:40;;;;;;;10.07;8.37;;;7.00;99.90;;;;;;5030384;28;20209;-71
2021/12/14 07:23:20;;;;;;;13.87;8.80;;;7.00;99.90;;;;;;5030315;28;20193;-71
2021/12/14 07:25:55;;;;;;;10.77;8.83;;;7.00;99.90;;;;;;5030099;28;20292;-70
2021/12/14 07:28:22;;;;;;;10.53;8.80;;;7.00;99.90;;;;;;5030312;28;20193;-71
2021/12/14 07:30:52;;;;;;;9.50;8.10;;;7.10;99.90;;;;;;5030239;28;20289;-71
2021/12/14 07:33:21;;;;;;;9.50;7.93;;;7.00;99.90;;;;;;5030370;28;20251;-71
2021/12/14 07:35:53;;;;;;;10.03;7.70;;;7.00;99.90;;;;;;5029807;28;20551;-71
2021/12/14 07:38:32;;;;;;;9.63;8.37;;;7.10;99.90;;;;;;5030079;28;20208;-71
2021/12/14 07:41:25;;;;;;;9.20;8.20;;;7.00;99.90;;;;;;5029763;28;20282;-71
2021/12/14 07:43:56;;;;;;;9.40;7.90;;;7.00;99.90;;;;;;5029414;28;20275;-71
2021/12/14 07:46:28;;;;;;;9.00;8.00;;;7.00;99.90;;;;;;5030000;28;20189;-71
2021/12/14 07:48:57;;;;;;;12.33;8.67;;;7.10;99.90;;;;;;5030054;28;20545;-71
2021/12/14 07:51:27;;;;;;;9.57;8.53;;;7.10;99.90;;;;;;5030139;28;20611;-72
2021/12/14 07:53:59;;;;;;;10.50;8.57;;;7.10;99.90;;;;;;5029585;28;20302;-72
2021/12/14 07:56:34;;;;;;;8.80;7.63;;;7.10;99.90;;;;;;5029501;28;20201;-72
2021/12/14 07:59:09;;;;;;;11.20;8.40;;;7.10;99.90;;;;;;5029507;28;20204;-71
2021/12/14 08:01:36;;;;;;;10.00;8.37;;;7.10;99.90;;;;;;5029695;28;20270;-72
2021/12/14 08:04:07;;;;;;;11.10;8.93;;;7.10;99.90;;;;;;5029247;28;20743;-71
2021/12/14 08:06:56;;;;;;;13.43;9.13;;;7.10;99.90;;;;;;5029483;28;20238;-72
2021/12/14 08:09:47;;;;;;;10.97;8.60;;;7.20;99.90;;;;;;5028975;28;20207;-71
2021/12/14 08:12:29;;;;;;;10.27;8.73;;;7.10;99.90;;;;;;5023175;28;20216;-71
2021/12/14 08:15:15;;;;;;;12.33;9.23;;;7.10;99.90;;;;;;5016371;28;20225;-71
2021/12/14 08:17:43;;;;;;;9.30;8.30;;;7.10;99.90;;;;;;5028268;28;20232;-71
2021/12/14 08:20:13;;;;;;;11.33;9.30;;;7.10;99.90;;;;;;5029268;28;20205;-72
2021/12/14 08:22:43;;;;;;;10.87;8.77;;;7.10;99.90;;;;;;5028994;28;20271;-71
2021/12/14 08:25:12;;;;;;;8.93;8.03;;;7.20;99.90;;;;;;5023944;28;20212;-72
2021/12/14 08:27:41;;;;;;;10.03;8.73;;;7.20;99.90;;;;;;5023504;28;20254;-71
2021/12/14 08:30:12;;;;;;;11.07;8.50;;;7.20;99.90;;;;;;5024122;28;20468;-71
2021/12/14 08:32:40;;;;;;;9.17;8.23;;;7.20;99.90;;;;;;5024780;28;20243;-71
2021/12/14 08:35:11;;;;;;;10.90;9.33;;;7.20;99.90;;;;;;5020468;28;20244;-71
2021/12/14 08:37:42;;;;;;;11.07;9.33;;;7.10;99.90;;;;;;5025147;28;20316;-71
2021/12/14 08:40:12;;;;;;;10.70;9.00;;;7.10;99.90;;;;;;5023743;28;20201;-71
2021/12/14 08:42:47;;;;;;;10.67;9.43;;;7.10;99.90;;;;;;5023776;28;20595;-71
2021/12/14 08:45:26;;;;;;;12.07;9.90;;;7.10;99.90;;;;;;5023672;28;20197;-72
2021/12/14 08:47:57;;;;;;;11.37;9.73;;;7.10;99.90;;;;;;5015403;28;20213;-73
2021/12/14 08:50:24;;;;;;;11.07;9.23;;;7.20;99.90;;;;;;5027238;28;20273;-73
2021/12/14 08:52:56;;;;;;;9.97;8.80;;;7.30;99.90;;;;;;5028468;28;20245;-78
2021/12/14 08:55:26;;;;;;;9.83;8.83;;;7.30;99.90;;;;;;5028321;28;20251;-71
2021/12/14 08:57:52;;;;;;;11.53;9.33;;;7.30;99.90;;;;;;5028264;28;20216;-71
2021/12/14 09:00:24;;;;;;;11.27;8.83;;;7.30;99.90;;;;;;5025585;28;20208;-71
2021/12/14 09:02:53;;;;;;;15.13;11.67;;;7.30;99.90;;;;;;5022964;28;20225;-73
2021/12/14 09:05:22;;;;;;;16.40;12.30;;;7.20;99.90;;;;;;5024770;28;20201;-73
2021/12/14 09:07:49;;;;;;;10.40;9.00;;;7.20;99.90;;;;;;5028104;28;20212;-73
2021/12/14 09:10:22;;;;;;;11.93;8.90;;;7.20;99.90;;;;;;5028026;28;20208;-73
2021/12/14 09:12:50;;;;;;;10.23;9.17;;;7.20;99.90;;;;;;5027358;28;20212;-72
2021/12/14 09:15:23;;;;;;;11.83;9.20;;;7.20;99.90;;;;;;5026966;28;20915;-72
2021/12/14 09:17:50;;;;;;;10.67;8.50;;;7.20;99.90;;;;;;5026969;28;20229;-72
2021/12/14 09:20:21;;;;;;;10.50;9.20;;;7.30;99.90;;;;;;5027382;28;20292;-73
2021/12/14 09:22:51;;;;;;;11.20;9.13;;;7.30;99.90;;;;;;5024604;28;20260;-70
2021/12/14 09:25:24;;;;;;;11.57;9.47;;;7.30;99.90;;;;;;5026995;28;20223;-70
2021/12/14 09:27:51;;;;;;;9.03;8.13;;;7.30;99.90;;;;;;5024458;28;20197;-70
2021/12/14 09:30:22;;;;;;;9.23;8.27;;;7.30;99.90;;;;;;5026902;28;20208;-72
2021/12/14 09:32:49;;;;;;;9.57;8.50;;;7.30;99.90;;;;;;5027333;28;20211;-72
2021/12/14 09:35:21;;;;;;;8.87;7.97;;;7.30;99.90;;;;;;5021225;28;20582;-72
2021/12/14 09:37:51;;;;;;;8.50;7.70;;;7.30;99.90;;;;;;5026579;28;20211;-77
2021/12/14 09:40:25;;;;;;;9.73;8.67;;;7.30;99.90;;;;;;5027446;28;20201;-74
2021/12/14 09:42:52;;;;;;;9.40;8.50;;;7.30;99.90;;;;;;5017307;28;20249;-73
2021/12/14 09:45:23;;;;;;;8.33;7.50;;;7.30;99.90;;;;;;5007637;28;20296;-74
2021/12/14 09:47:50;;;;;;;11.13;8.67;;;7.30;99.90;;;;;;5013498;28;20205;-73
2021/12/14 09:50:20;;;;;;;9.83;7.90;;;7.30;99.90;;;;;;5026966;28;20201;-73
2021/12/14 09:52:48;;;;;;;8.90;8.00;;;7.30;99.90;;;;;;5021921;28;20299;-73
2021/12/14 09:55:20;;;;;;;8.50;7.70;;;7.30;99.90;;;;;;5013740;28;20204;-73
2021/12/14 09:57:51;;;;;;;9.03;8.10;;;7.30;99.90;;;;;;5026525;28;20270;-74
2021/12/14 10:00:22;;;;;;;8.87;7.87;;;7.30;99.90;;;;;;5023881;28;20203;-74
2021/12/14 10:02:51;;;;;;;8.83;7.90;;;7.40;99.90;;;;;;5026720;28;20216;-74
2021/12/14 10:05:22;;;;;;;11.10;8.27;;;7.50;99.90;;;;;;5027162;28;20196;-73
2021/12/14 10:07:49;;;;;;;11.83;10.73;;;7.50;99.90;;;;;;5028256;28;20572;-73
2021/12/14 10:10:19;;;;;;;10.40;8.73;;;7.50;99.90;;;;;;5027553;28;20209;-73
2021/12/14 10:12:54;;;;;;;9.80;8.20;;;7.50;99.90;;;;;;5026945;28;20656;-73
2021/12/14 10:15:32;;;;;;;9.17;8.27;;;7.40;99.90;;;;;;5021113;28;20256;-73
2021/12/14 10:18:02;;;;;;;11.77;9.47;;;7.40;99.90;;;;;;5015395;28;20719;-73
2021/12/14 10:20:35;;;;;;;10.00;9.00;;;7.40;99.90;;;;;;5010890;28;20219;-73
2021/12/14 10:23:03;;;;;;;10.47;8.57;;;7.40;99.90;;;;;;5023522;28;20299;-73
2021/12/14 10:25:30;;;;;;;9.80;8.80;;;7.40;99.90;;;;;;5023649;28;20685;-73
2021/12/14 10:27:59;;;;;;;10.93;9.87;;;7.40;99.90;;;;;;5023445;28;20283;-73
2021/12/14 10:30:32;;;;;;;9.30;8.40;;;7.40;99.90;;;;;;5023672;28;20220;-73
2021/12/14 10:33:01;;;;;;;9.73;8.73;;;7.40;99.90;;;;;;5025559;28;20224;-73
2021/12/14 10:35:38;;;;;;;10.40;9.37;;;7.40;99.90;;;;;;5027498;28;20707;-73
2021/12/14 10:38:15;;;;;;;10.07;8.37;;;7.40;99.90;;;;;;5027580;28;20480;-73
2021/12/14 10:43:32;;;;;;;9.53;8.60;;;7.50;99.90;;;;;;5027095;28;20235;-73
2021/12/14 10:46:03;;;;;;;9.70;8.37;;;7.50;99.90;;;;;;5027177;28;20636;-72
2021/12/14 10:48:33;;;;;;;8.73;7.90;;;7.50;99.90;;;;;;5027560;28;20197;-72
2021/12/14 10:53:48;;;;;;;8.73;7.93;;;7.60;99.90;;;;;;5024998;28;20236;-73
2021/12/14 10:56:29;;;;;;;9.20;8.23;;;7.60;99.90;;;;;;5026431;28;20664;-72
2021/12/14 10:59:00;;;;;;;8.17;7.40;;;7.70;99.90;;;;;;5026512;28;20663;-72
2021/12/14 11:01:33;;;;;;;8.83;7.97;;;7.70;99.90;;;;;;5023598;28;20236;-72
2021/12/14 11:04:04;;;;;;;8.20;7.40;;;7.70;99.90;;;;;;5026115;28;20304;-74
2021/12/14 11:06:33;;;;;;;8.83;8.03;;;7.70;99.90;;;;;;5020126;28;20531;-75
2021/12/14 11:11:59;;;;;;;8.00;7.20;;;7.90;99.90;;;;;;5018987;28;20676;-72
2021/12/14 11:14:33;;;;;;;8.30;7.40;;;8.00;99.90;;;;;;5024910;28;20225;-73
2021/12/14 11:19:51;;;;;;;8.93;8.03;;;7.90;99.90;;;;;;5025310;28;20212;-71
2021/12/14 11:22:22;;;;;;;7.23;6.57;;;7.90;99.90;;;;;;5029309;28;20221;-71
2021/12/14 11:24:54;;;;;;;7.90;7.10;;;8.00;99.90;;;;;;5028641;28;20193;-71
2021/12/14 11:27:24;;;;;;;8.60;7.70;;;8.00;99.90;;;;;;5029627;28;20258;-71
2021/12/14 11:30:20;;;;;;;8.40;7.50;;;8.00;99.90;;;;;;5030103;28;20208;-71
2021/12/14 11:32:49;;;;;;;7.63;6.83;;;7.90;99.90;;;;;;5029497;28;20251;-71
2021/12/14 11:35:22;;;;;;;11.73;10.63;;;7.90;99.90;;;;;;5029634;28;20777;-71
2021/12/14 11:37:50;;;;;;;9.77;7.90;;;8.00;99.90;;;;;;5030234;28;20561;-71
2021/12/14 11:40:20;;;;;;;7.73;7.00;;;8.00;99.90;;;;;;5029775;28;20204;-72
2021/12/14 11:42:47;;;;;;;7.90;7.20;;;7.90;99.90;;;;;;5029765;28;20225;-71
2021/12/14 11:45:21;;;;;;;8.83;7.93;;;7.90;99.90;;;;;;5028713;28;20205;-71
2021/12/14 11:47:50;;;;;;;7.90;7.17;;;7.90;99.90;;;;;;5029946;28;20197;-71
2021/12/14 11:50:26;;;;;;;8.73;7.43;;;7.90;99.90;;;;;;5029877;28;20213;-71
2021/12/14 11:52:57;;;;;;;7.63;6.93;;;7.90;99.90;;;;;;5029239;28;20247;-71
2021/12/14 11:55:38;;;;;;;7.70;6.97;;;7.90;99.90;;;;;;5029432;28;20216;-71
2021/12/14 11:58:16;;;;;;;8.53;7.53;;;7.90;99.90;;;;;;5029590;28;20240;-71
2021/12/14 12:00:48;;;;;;;7.73;7.03;;;8.00;99.90;;;;;;5029628;28;20199;-71
2021/12/14 12:03:27;;;;;;;7.87;7.20;;;8.00;99.90;;;;;;5029352;28;20229;-71
2021/12/14 12:06:02;;;;;;;8.87;7.77;;;8.00;99.90;;;;;;5029412;28;20611;-71
2021/12/14 12:11:20;;;;;;;8.57;7.53;;;8.00;99.90;;;;;;5029221;28;20738;-71
2021/12/14 12:13:48;;;;;;;12.10;7.40;;;8.00;99.90;;;;;;5029388;28;20278;-71
2021/12/14 12:16:31;;;;;;;8.63;7.63;;;8.00;99.90;;;;;;5028669;28;20244;-71
2021/12/14 12:19:09;;;;;;;9.87;7.57;;;8.00;99.90;;;;;;5009390;28;20636;-72
2021/12/14 12:21:38;;;;;;;8.37;7.57;;;8.00;99.90;;;;;;5006341;28;20216;-72
2021/12/14 12:24:06;;;;;;;9.53;7.83;;;8.00;99.90;;;;;;5014257;28;20505;-71
2021/12/14 12:26:34;;;;;;;8.50;7.67;;;8.10;99.90;;;;;;5025895;28;20212;-72
2021/12/14 12:29:08;;;;;;;8.13;7.43;;;8.10;99.90;;;;;;5013177;28;20629;-72
2021/12/14 12:31:46;;;;;;;7.53;6.83;;;8.10;99.90;;;;;;5005483;28;20285;-72
2021/12/14 12:34:13;;;;;;;9.17;8.23;;;8.20;99.90;;;;;;5005687;28;20237;-72
2021/12/14 12:36:42;;;;;;;8.57;7.20;;;8.20;99.90;;;;;;5006077;28;20576;-73
2021/12/14 12:39:12;;;;;;;8.90;8.00;;;8.20;99.90;;;;;;5005655;28;20213;-70
2021/12/14 12:41:46;;;;;;;8.47;7.67;;;8.30;99.90;;;;;;5005846;28;20210;-70
2021/12/14 12:44:15;;;;;;;8.83;7.93;;;8.30;99.90;;;;;;5005190;28;20708;-72
2021/12/14 12:46:48;;;;;;;8.27;7.47;;;8.40;99.90;;;;;;5024349;28;20263;-71
2021/12/14 12:49:20;;;;;;;8.67;7.77;;;8.30;99.90;;;;;;5028477;28;20211;-72
2021/12/14 12:52:09;;;;;;;10.17;7.33;;;8.30;99.90;;;;;;5028202;28;20229;-71
2021/12/14 12:54:56;;;;;;;9.23;7.93;;;8.30;99.90;;;;;;5028205;28;20237;-72
2021/12/14 12:57:53;;;;;;;8.30;7.60;;;8.30;99.90;;;;;;5012735;28;20215;-71
2021/12/14 13:00:34;;;;;;;8.77;7.93;;;8.30;99.90;;;;;;5009513;28;20312;-71
2021/12/14 13:03:08;;;;;;;9.20;8.20;;;8.30;99.90;;;;;;5004665;28;20240;-71
2021/12/14 13:05:38;;;;;;;8.23;7.47;;;8.30;99.90;;;;;;5005068;28;20237;-71
2021/12/14 13:08:16;;;;;;;8.90;8.00;;;8.30;99.90;;;;;;5005102;28;20244;-71
2021/12/14 13:10:45;;;;;;;9.53;8.53;;;8.20;99.90;;;;;;5009337;28;20219;-71
2021/12/14 13:13:15;;;;;;;9.17;8.23;;;8.10;99.90;;;;;;5019633;28;20220;-72
2021/12/14 13:15:59;;;;;;;10.50;9.10;;;8.00;99.90;;;;;;5024591;28;20290;-71
2021/12/14 13:18:49;;;;;;;11.20;9.77;;;7.90;99.90;;;;;;5024426;28;20213;-71
2021/12/14 13:21:38;;;;;;;13.00;9.80;;;7.70;99.90;;;;;;5024847;28;20215;-71
2021/12/14 13:24:15;;;;;;;12.07;9.97;;;7.70;99.90;;;;;;5024363;28;20225;-71
2021/12/14 13:26:50;;;;;;;12.10;9.57;;;7.70;99.90;;;;;;5024781;28;20223;-72
2021/12/14 13:29:43;;;;;;;14.20;10.03;;;7.70;99.90;;;;;;5024249;28;20639;-71
2021/12/14 13:32:17;;;;;;;16.07;10.70;;;7.60;99.90;;;;;;5021829;28;20209;-71
2021/12/14 13:34:51;;;;;;;13.27;9.93;;;7.60;99.90;;;;;;5024607;28;20240;-72
2021/12/14 13:37:21;;;;;;;12.83;10.60;;;7.60;99.90;;;;;;5024398;28;20254;-72
2021/12/14 13:39:49;;;;;;;12.23;9.87;;;7.60;99.90;;;;;;5024510;28;20209;-71
2021/12/14 13:42:33;;;;;;;13.37;10.70;;;7.60;99.90;;;;;;5024445;28;20212;-72
2021/12/14 13:45:01;;;;;;;15.13;11.33;;;7.50;99.90;;;;;;5024059;28;20279;-72